Dean Reinauer — WDG7107 — position and weather

sailwx.info

Track history (hours):
 
Tides and Currents Weather Stations Pressure Air Temp Water Temp Dewpoint Dewpoint Depression Visibility Wind Speed Wind Dir Waves Ship Positions

Dean Reinauer

Owner: REINAUER TRANSPORTATION CO.,LLC., STATEN ISLAND, NY. More information available from US FCC via Universal Licensing System and Coast Guard Vessel Documentation Center.

Last reported at 2018-Jun-21 23:52 UTC. Time now 2018-Jun-22 00:00 UTC.
Position N 41°47' W 071°22'.

Length 152 m; draft 5.1 m.

Type: . MMSI: 367563930.

Date/timePositionNaut miles runAvg speedWind from/ knotsBaromVisibWave heightAir tempDewpointWater temp
2018-Jun-21 23:52N 41°47' W 071°22'0 0.0
2018-Jun-21 23:22N 41°47' W 071°22'0 0.0
2018-Jun-21 22:46N 41°47' W 071°22'0 0.0
2018-Jun-21 21:58N 41°47' W 071°22'0 0.0
2018-Jun-21 21:15N 41°47' W 071°22'0 0.0
2018-Jun-21 19:07N 41°47' W 071°22'0 0.0
2018-Jun-21 19:00N 41°47' W 071°22'1 1.5
2018-Jun-21 18:30N 41°46' W 071°22'1 2.8
2018-Jun-21 18:00N 41°45' W 071°22'3 6.3
2018-Jun-21 17:30N 41°42' W 071°20'5 8.3
2018-Jun-21 16:58N 41°38' W 071°18'41 2.1
2018-Jun-20 20:48N 41°59' W 070°30'3 9.6
2018-Jun-20 20:30N 42°02' W 070°31'5 9.5
2018-Jun-20 20:00N 42°06' W 070°32'5 9.4
2018-Jun-20 19:30N 42°11' W 070°35'5 9.3
2018-Jun-20 19:00N 42°14' W 070°39'5 9.6
2018-Jun-20 18:30N 42°18' W 070°43'5 9.4
2018-Jun-20 18:01N 42°21' W 070°48'4 8.7
2018-Jun-20 17:30N 42°23' W 070°53'4 8.6
2018-Jun-20 17:00N 42°20' W 070°58'3 5.7
2018-Jun-20 16:30N 42°21' W 071°02'0 0.1
2018-Jun-20 15:59N 42°21' W 071°01'0 0.1
2018-Jun-20 15:29N 42°21' W 071°01'0 0.1
2018-Jun-20 14:59N 42°21' W 071°01'0 0.0
2018-Jun-20 14:30N 42°21' W 071°01'0 0.0
2018-Jun-20 13:59N 42°21' W 071°01'0 0.0
2018-Jun-20 13:29N 42°21' W 071°01'0 0.0
2018-Jun-20 12:59N 42°21' W 071°01'0 0.0
2018-Jun-20 12:29N 42°21' W 071°01'0 0.1
2018-Jun-20 11:59N 42°21' W 071°01'0 0.0
2018-Jun-20 11:29N 42°21' W 071°01'0 0.0
2018-Jun-20 11:00N 42°21' W 071°01'0 0.0
2018-Jun-20 10:30N 42°21' W 071°01'0 0.1
2018-Jun-20 10:00N 42°21' W 071°01'0 0.2
2018-Jun-20 09:30N 42°21' W 071°02'0 0.1
2018-Jun-20 09:00N 42°21' W 071°02'0 0.1
2018-Jun-20 08:28N 42°21' W 071°02'1 2.8
2018-Jun-20 08:01N 42°22' W 071°03'2 3.0
2018-Jun-20 07:30N 42°23' W 071°01'1 1.4
2018-Jun-20 07:00N 42°24' W 071°01'0 0.0
2018-Jun-20 06:30N 42°24' W 071°01'0 0.0
2018-Jun-20 05:56N 42°24' W 071°01'0 0.0
2018-Jun-20 05:29N 42°24' W 071°01'0 0.0
2018-Jun-20 04:59N 42°24' W 071°01'0 0.0
2018-Jun-20 04:29N 42°24' W 071°01'0 0.0
2018-Jun-20 03:59N 42°24' W 071°01'0 0.0
2018-Jun-20 03:29N 42°24' W 071°01'0 0.0
2018-Jun-20 02:59N 42°24' W 071°01'0 0.0
2018-Jun-20 02:29N 42°24' W 071°01'0 0.0
2018-Jun-20 01:59N 42°24' W 071°01'0 0.0
2018-Jun-20 01:29N 42°24' W 071°01'0 0.0
2018-Jun-20 00:59N 42°24' W 071°01'0 0.0
2018-Jun-20 00:29N 42°24' W 071°01'0 0.0
2018-Jun-19 23:59N 42°24' W 071°01'0 0.0
2018-Jun-19 23:29N 42°24' W 071°01'0 0.0
2018-Jun-19 22:59N 42°24' W 071°01'0 0.0
2018-Jun-19 22:29N 42°24' W 071°01'0 0.0
2018-Jun-19 21:59N 42°24' W 071°01'0 0.0
2018-Jun-19 21:29N 42°24' W 071°01'0 0.0
2018-Jun-19 20:59N 42°24' W 071°01'0 0.0
2018-Jun-19 20:29N 42°24' W 071°01'0 0.0
2018-Jun-19 20:00N 42°24' W 071°01'1 1.8
2018-Jun-19 19:30N 42°23' W 071°02'1 2.0
2018-Jun-19 19:01N 42°23' W 071°03'2 5.0
2018-Jun-19 18:30N 42°21' W 071°01'4 7.2
2018-Jun-19 18:01N 42°21' W 070°56'4 8.5
2018-Jun-19 17:30N 42°22' W 070°50'5 9.9
2018-Jun-19 17:00N 42°19' W 070°45'5 9.8
2018-Jun-19 16:30N 42°16' W 070°41'5 9.7
2018-Jun-19 15:57N 42°11' W 070°36'23 9.5
2018-Jun-19 13:33N 41°49' W 070°28'90 6.3
2018-Jun-18 23:18N 40°54' W 072°04'5 9.7
2018-Jun-18 22:48N 40°53' W 072°09'4 9.6
2018-Jun-18 22:26N 40°51' W 072°14'10 9.8
2018-Jun-18 21:26N 40°48' W 072°26'9 9.9
2018-Jun-18 20:33N 40°45' W 072°37'1 9.9
2018-Jun-18 20:29N 40°45' W 072°38'510.0
2018-Jun-18 19:59N 40°43' W 072°44'610.1
2018-Jun-18 19:21N 40°40' W 072°52'310.3
2018-Jun-18 19:00N 40°39' W 072°56'45 9.9
2018-Jun-18 14:27N 40°29' W 073°54'4 8.5
2018-Jun-18 14:00N 40°31' W 073°58'4 8.0
2018-Jun-18 13:31N 40°33' W 074°02'510.1
2018-Jun-18 13:01N 40°38' W 074°03'611.0
2018-Jun-18 12:30N 40°44' W 074°01'712.1
2018-Jun-18 11:56N 40°50' W 073°57'  
2018-Jun-16 03:45N 40°51' W 073°57'2 9.8
2018-Jun-16 03:30N 40°49' W 073°58'611.5
2018-Jun-16 03:01N 40°44' W 074°01'510.5
2018-Jun-16 02:31N 40°39' W 074°04'4 7.3
2018-Jun-16 02:00N 40°39' W 074°09'3 1.0
2018-Jun-15 23:07N 40°37' W 074°12'1 8.2
2018-Jun-15 22:59N 40°38' W 074°12'3 7.1
2018-Jun-15 22:30N 40°39' W 074°08'0 0.1
2018-Jun-15 22:00N 40°38' W 074°08'0 0.0
2018-Jun-15 21:30N 40°38' W 074°08'0 0.0
2018-Jun-15 21:00N 40°38' W 074°08'0 0.0
2018-Jun-15 20:30N 40°38' W 074°08'0 0.0
2018-Jun-15 20:00N 40°38' W 074°08'0 0.0
2018-Jun-15 19:30N 40°38' W 074°08'0 0.0
2018-Jun-15 19:00N 40°38' W 074°08'3 6.4
2018-Jun-15 18:30N 40°39' W 074°04'2 4.8
2018-Jun-15 18:00N 40°39' W 074°07'1 1.4
2018-Jun-15 17:28N 40°38' W 074°08'1 1.6
2018-Jun-15 17:00N 40°39' W 074°09'5 2.7
2018-Jun-15 15:08N 40°35' W 074°13'3 5.2
2018-Jun-15 14:38N 40°37' W 074°12'1 7.0
2018-Jun-15 14:27N 40°38' W 074°12'3 7.4
2018-Jun-15 14:00N 40°39' W 074°07'4 7.1
2018-Jun-15 13:30N 40°40' W 074°03'4 8.6
2018-Jun-15 13:00N 40°44' W 074°01'3 6.1
2018-Jun-15 12:30N 40°47' W 073°60'0 0.1
2018-Jun-15 12:00N 40°47' W 073°60'0 0.1
2018-Jun-15 11:30N 40°47' W 073°60'3 5.3
2018-Jun-15 11:00N 40°45' W 074°01'2 4.9
2018-Jun-15 10:30N 40°42' W 073°60'4 7.2
2018-Jun-15 10:00N 40°45' W 073°58'59 8.9
2018-Jun-15 03:23N 41°06' W 072°44'410.7
2018-Jun-15 03:00N 41°07' W 072°39'611.3
2018-Jun-15 02:30N 41°08' W 072°32'611.8
2018-Jun-15 02:00N 41°10' W 072°24'612.2
2018-Jun-15 01:30N 41°12' W 072°17'611.9
2018-Jun-15 00:59N 41°13' W 072°09'91 8.2
2018-Jun-14 13:55N 42°08' W 070°32'4 9.9
2018-Jun-14 13:30N 42°12' W 070°34'5 9.8
2018-Jun-14 13:00N 42°15' W 070°39'5 9.4
2018-Jun-14 12:30N 42°19' W 070°44'5 9.2
2018-Jun-14 12:00N 42°21' W 070°49'4 8.7
2018-Jun-14 11:30N 42°22' W 070°54'4 8.5
2018-Jun-14 11:00N 42°20' W 070°59'4 7.1
2018-Jun-14 10:30N 42°22' W 071°03'2 3.5
2018-Jun-14 10:00N 42°23' W 071°01'1 1.2
2018-Jun-14 09:30N 42°24' W 071°01'0 0.0
2018-Jun-14 09:00N 42°24' W 071°01'0 0.0
2018-Jun-14 08:30N 42°24' W 071°01'0 0.0
2018-Jun-14 08:01N 42°24' W 071°01'0 0.0
2018-Jun-14 07:28N 42°24' W 071°01'0 0.0
2018-Jun-14 06:58N 42°24' W 071°01'0 0.0
2018-Jun-14 06:28N 42°24' W 071°01'0 0.0
2018-Jun-14 05:58N 42°24' W 071°01'0 0.0
2018-Jun-14 05:28N 42°24' W 071°01'0 0.0
2018-Jun-14 04:58N 42°24' W 071°01'0 0.0
2018-Jun-14 04:28N 42°24' W 071°01'0 0.0
2018-Jun-14 03:58N 42°24' W 071°01'0 0.0
2018-Jun-14 03:28N 42°24' W 071°01'0 0.0
2018-Jun-14 02:58N 42°24' W 071°01'0 0.0
2018-Jun-14 02:28N 42°24' W 071°01'0 0.0
2018-Jun-14 01:58N 42°24' W 071°01'0 0.0
2018-Jun-14 01:28N 42°24' W 071°01'0 0.0
2018-Jun-14 00:58N 42°24' W 071°01'0 0.0
2018-Jun-14 00:28N 42°24' W 071°01'0 0.0
2018-Jun-13 23:58N 42°24' W 071°01'0 0.0
2018-Jun-13 23:28N 42°24' W 071°01'0 0.0
2018-Jun-13 22:58N 42°24' W 071°01'0 0.0
2018-Jun-13 22:28N 42°24' W 071°01'0 0.0
2018-Jun-13 21:58N 42°24' W 071°01'0 0.0
2018-Jun-13 21:28N 42°24' W 071°01'0 0.0
2018-Jun-13 21:00N 42°24' W 071°01'1 2.0
2018-Jun-13 20:30N 42°23' W 071°02'1 2.7
2018-Jun-13 20:00N 42°22' W 071°03'1 1.4
2018-Jun-13 19:30N 42°21' W 071°02'0 0.0
2018-Jun-13 19:00N 42°21' W 071°02'0 0.0
2018-Jun-13 18:30N 42°21' W 071°02'0 0.0
2018-Jun-13 18:00N 42°21' W 071°02'0 0.0
2018-Jun-13 17:30N 42°21' W 071°02'0 0.0
2018-Jun-13 17:00N 42°21' W 071°02'0 0.0
2018-Jun-13 16:30N 42°21' W 071°02'0 0.1
2018-Jun-13 16:00N 42°22' W 071°02'0 0.7
2018-Jun-13 15:30N 42°22' W 071°02'2 3.2
2018-Jun-13 14:59N 42°23' W 071°03'0 0.0
2018-Jun-13 14:29N 42°23' W 071°03'0 0.0
2018-Jun-13 13:59N 42°23' W 071°03'0 0.0
2018-Jun-13 13:29N 42°23' W 071°03'0 0.0
2018-Jun-13 12:59N 42°23' W 071°03'0 0.0
2018-Jun-13 12:29N 42°23' W 071°03'0 0.0
2018-Jun-13 11:59N 42°23' W 071°03'0 0.0
2018-Jun-13 11:29N 42°23' W 071°03'0 0.0
2018-Jun-13 10:59N 42°23' W 071°03'0 0.0
2018-Jun-13 10:29N 42°23' W 071°03'0 0.0
2018-Jun-13 09:59N 42°23' W 071°03'0 0.0
2018-Jun-13 09:29N 42°23' W 071°03'0 0.0
2018-Jun-13 08:59N 42°23' W 071°03'0 0.0
2018-Jun-13 08:28N 42°23' W 071°03'0 0.0
2018-Jun-13 07:59N 42°23' W 071°03'0 0.0
2018-Jun-13 07:29N 42°23' W 071°03'0 0.0
2018-Jun-13 06:59N 42°23' W 071°03'0 0.0
2018-Jun-13 06:29N 42°23' W 071°03'0 0.0
2018-Jun-13 05:58N 42°23' W 071°03'0 0.0
2018-Jun-13 05:28N 42°23' W 071°03'0 0.0
2018-Jun-13 04:58N 42°23' W 071°03'0 0.0
2018-Jun-13 04:29N 42°23' W 071°03'0 0.0
2018-Jun-13 03:55N 42°23' W 071°03'0 0.0
2018-Jun-13 03:28N 42°23' W 071°03'0 0.0
2018-Jun-13 03:00N 42°23' W 071°03'0 0.4
2018-Jun-13 02:30N 42°23' W 071°03'2 4.1
2018-Jun-13 02:00N 42°21' W 071°02'2 4.5
2018-Jun-13 01:30N 42°20' W 070°59'3 5.3
2018-Jun-13 01:00N 42°21' W 070°56'3 5.6
2018-Jun-13 00:30N 42°23' W 070°53'3 6.6
2018-Jun-13 00:00N 42°22' W 070°49'5 9.9
2018-Jun-12 23:30N 42°18' W 070°44'5 9.6
2018-Jun-12 23:00N 42°15' W 070°40'5 9.5
2018-Jun-12 22:30N 42°11' W 070°36'5 9.2
2018-Jun-12 21:57N 42°06' W 070°33'44 4.1
2018-Jun-12 11:20N 41°38' W 071°18'2 6.9
2018-Jun-12 11:00N 41°40' W 071°19'3 6.6
2018-Jun-12 10:29N 41°43' W 071°21'3 6.1
2018-Jun-12 10:00N 41°46' W 071°23'1 2.3
2018-Jun-12 09:30N 41°47' W 071°22'0 0.0
2018-Jun-12 09:00N 41°47' W 071°22'0 0.0
2018-Jun-12 08:26N 41°47' W 071°22'0 0.0
2018-Jun-12 07:56N 41°47' W 071°22'0 0.0
2018-Jun-12 07:26N 41°47' W 071°22'0 0.0
2018-Jun-12 06:56N 41°47' W 071°22'0 0.0
2018-Jun-12 06:26N 41°47' W 071°22'0 0.0
2018-Jun-12 05:56N 41°47' W 071°22'0 0.0
2018-Jun-12 05:26N 41°47' W 071°22'0 0.0
2018-Jun-12 04:56N 41°47' W 071°22'0 0.0
2018-Jun-12 04:26N 41°47' W 071°22'0 0.0
2018-Jun-12 03:44N 41°47' W 071°22'0 0.0
2018-Jun-12 03:26N 41°47' W 071°22'0 0.0
2018-Jun-12 02:56N 41°47' W 071°22'0 0.0
2018-Jun-12 02:26N 41°47' W 071°22'0 0.0
2018-Jun-12 01:56N 41°47' W 071°22'0 0.0
2018-Jun-12 01:26N 41°47' W 071°22'0 0.0
2018-Jun-12 00:56N 41°47' W 071°22'0 0.0
2018-Jun-12 00:26N 41°47' W 071°22'0 0.0
2018-Jun-11 23:56N 41°47' W 071°22'  
Track history (hours):
 
Tides and Currents Weather Stations Pressure Air Temp Water Temp Dewpoint Dewpoint Depression Visibility Wind Speed Wind Dir Waves Ship Positions

Dean Reinauer

Owner: REINAUER TRANSPORTATION CO.,LLC., STATEN ISLAND, NY. More information available from US FCC via Universal Licensing System and Coast Guard Vessel Documentation Center.

Last reported at 2018-Jun-21 23:52 UTC. Time now 2018-Jun-22 00:00 UTC.
Position N 41°47' W 071°22'.

Length 152 m; draft 5.1 m.

Type: . MMSI: 367563930.

Date/timePositionNaut miles runAvg speedWind from/ knotsBaromVisibWave heightAir tempDewpointWater temp
2018-Jun-21 23:52N 41°47' W 071°22'0 0.0
2018-Jun-21 23:22N 41°47' W 071°22'0 0.0
2018-Jun-21 22:46N 41°47' W 071°22'0 0.0
2018-Jun-21 21:58N 41°47' W 071°22'0 0.0
2018-Jun-21 21:15N 41°47' W 071°22'0 0.0
2018-Jun-21 19:07N 41°47' W 071°22'0 0.0
2018-Jun-21 19:00N 41°47' W 071°22'1 1.5
2018-Jun-21 18:30N 41°46' W 071°22'1 2.8
2018-Jun-21 18:00N 41°45' W 071°22'3 6.3
2018-Jun-21 17:30N 41°42' W 071°20'5 8.3
2018-Jun-21 16:58N 41°38' W 071°18'41 2.1
2018-Jun-20 20:48N 41°59' W 070°30'3 9.6
2018-Jun-20 20:30N 42°02' W 070°31'5 9.5
2018-Jun-20 20:00N 42°06' W 070°32'5 9.4
2018-Jun-20 19:30N 42°11' W 070°35'5 9.3
2018-Jun-20 19:00N 42°14' W 070°39'5 9.6
2018-Jun-20 18:30N 42°18' W 070°43'5 9.4
2018-Jun-20 18:01N 42°21' W 070°48'4 8.7
2018-Jun-20 17:30N 42°23' W 070°53'4 8.6
2018-Jun-20 17:00N 42°20' W 070°58'3 5.7
2018-Jun-20 16:30N 42°21' W 071°02'0 0.1
2018-Jun-20 15:59N 42°21' W 071°01'0 0.1
2018-Jun-20 15:29N 42°21' W 071°01'0 0.1
2018-Jun-20 14:59N 42°21' W 071°01'0 0.0
2018-Jun-20 14:30N 42°21' W 071°01'0 0.0
2018-Jun-20 13:59N 42°21' W 071°01'0 0.0
2018-Jun-20 13:29N 42°21' W 071°01'0 0.0
2018-Jun-20 12:59N 42°21' W 071°01'0 0.0
2018-Jun-20 12:29N 42°21' W 071°01'0 0.1
2018-Jun-20 11:59N 42°21' W 071°01'0 0.0
2018-Jun-20 11:29N 42°21' W 071°01'0 0.0
2018-Jun-20 11:00N 42°21' W 071°01'0 0.0
2018-Jun-20 10:30N 42°21' W 071°01'0 0.1
2018-Jun-20 10:00N 42°21' W 071°01'0 0.2
2018-Jun-20 09:30N 42°21' W 071°02'0 0.1
2018-Jun-20 09:00N 42°21' W 071°02'0 0.1
2018-Jun-20 08:28N 42°21' W 071°02'1 2.8
2018-Jun-20 08:01N 42°22' W 071°03'2 3.0
2018-Jun-20 07:30N 42°23' W 071°01'1 1.4
2018-Jun-20 07:00N 42°24' W 071°01'0 0.0
2018-Jun-20 06:30N 42°24' W 071°01'0 0.0
2018-Jun-20 05:56N 42°24' W 071°01'0 0.0
2018-Jun-20 05:29N 42°24' W 071°01'0 0.0
2018-Jun-20 04:59N 42°24' W 071°01'0 0.0
2018-Jun-20 04:29N 42°24' W 071°01'0 0.0
2018-Jun-20 03:59N 42°24' W 071°01'0 0.0
2018-Jun-20 03:29N 42°24' W 071°01'0 0.0
2018-Jun-20 02:59N 42°24' W 071°01'0 0.0
2018-Jun-20 02:29N 42°24' W 071°01'0 0.0
2018-Jun-20 01:59N 42°24' W 071°01'0 0.0
2018-Jun-20 01:29N 42°24' W 071°01'0 0.0
2018-Jun-20 00:59N 42°24' W 071°01'0 0.0
2018-Jun-20 00:29N 42°24' W 071°01'0 0.0
2018-Jun-19 23:59N 42°24' W 071°01'0 0.0
2018-Jun-19 23:29N 42°24' W 071°01'0 0.0
2018-Jun-19 22:59N 42°24' W 071°01'0 0.0
2018-Jun-19 22:29N 42°24' W 071°01'0 0.0
2018-Jun-19 21:59N 42°24' W 071°01'0 0.0
2018-Jun-19 21:29N 42°24' W 071°01'0 0.0
2018-Jun-19 20:59N 42°24' W 071°01'0 0.0
2018-Jun-19 20:29N 42°24' W 071°01'0 0.0
2018-Jun-19 20:00N 42°24' W 071°01'1 1.8
2018-Jun-19 19:30N 42°23' W 071°02'1 2.0
2018-Jun-19 19:01N 42°23' W 071°03'2 5.0
2018-Jun-19 18:30N 42°21' W 071°01'4 7.2
2018-Jun-19 18:01N 42°21' W 070°56'4 8.5
2018-Jun-19 17:30N 42°22' W 070°50'5 9.9
2018-Jun-19 17:00N 42°19' W 070°45'5 9.8
2018-Jun-19 16:30N 42°16' W 070°41'5 9.7
2018-Jun-19 15:57N 42°11' W 070°36'23 9.5
2018-Jun-19 13:33N 41°49' W 070°28'90 6.3
2018-Jun-18 23:18N 40°54' W 072°04'5 9.7
2018-Jun-18 22:48N 40°53' W 072°09'4 9.6
2018-Jun-18 22:26N 40°51' W 072°14'10 9.8
2018-Jun-18 21:26N 40°48' W 072°26'9 9.9
2018-Jun-18 20:33N 40°45' W 072°37'1 9.9
2018-Jun-18 20:29N 40°45' W 072°38'510.0
2018-Jun-18 19:59N 40°43' W 072°44'610.1
2018-Jun-18 19:21N 40°40' W 072°52'310.3
2018-Jun-18 19:00N 40°39' W 072°56'45 9.9
2018-Jun-18 14:27N 40°29' W 073°54'4 8.5
2018-Jun-18 14:00N 40°31' W 073°58'4 8.0
2018-Jun-18 13:31N 40°33' W 074°02'510.1
2018-Jun-18 13:01N 40°38' W 074°03'611.0
2018-Jun-18 12:30N 40°44' W 074°01'712.1
2018-Jun-18 11:56N 40°50' W 073°57'  
2018-Jun-16 03:45N 40°51' W 073°57'2 9.8
2018-Jun-16 03:30N 40°49' W 073°58'611.5
2018-Jun-16 03:01N 40°44' W 074°01'510.5
2018-Jun-16 02:31N 40°39' W 074°04'4 7.3
2018-Jun-16 02:00N 40°39' W 074°09'3 1.0
2018-Jun-15 23:07N 40°37' W 074°12'1 8.2
2018-Jun-15 22:59N 40°38' W 074°12'3 7.1
2018-Jun-15 22:30N 40°39' W 074°08'0 0.1
2018-Jun-15 22:00N 40°38' W 074°08'0 0.0
2018-Jun-15 21:30N 40°38' W 074°08'0 0.0
2018-Jun-15 21:00N 40°38' W 074°08'0 0.0
2018-Jun-15 20:30N 40°38' W 074°08'0 0.0
2018-Jun-15 20:00N 40°38' W 074°08'0 0.0
2018-Jun-15 19:30N 40°38' W 074°08'0 0.0
2018-Jun-15 19:00N 40°38' W 074°08'3 6.4
2018-Jun-15 18:30N 40°39' W 074°04'2 4.8
2018-Jun-15 18:00N 40°39' W 074°07'1 1.4
2018-Jun-15 17:28N 40°38' W 074°08'1 1.6
2018-Jun-15 17:00N 40°39' W 074°09'5 2.7
2018-Jun-15 15:08N 40°35' W 074°13'3 5.2
2018-Jun-15 14:38N 40°37' W 074°12'1 7.0
2018-Jun-15 14:27N 40°38' W 074°12'3 7.4
2018-Jun-15 14:00N 40°39' W 074°07'4 7.1
2018-Jun-15 13:30N 40°40' W 074°03'4 8.6
2018-Jun-15 13:00N 40°44' W 074°01'3 6.1
2018-Jun-15 12:30N 40°47' W 073°60'0 0.1
2018-Jun-15 12:00N 40°47' W 073°60'0 0.1
2018-Jun-15 11:30N 40°47' W 073°60'3 5.3
2018-Jun-15 11:00N 40°45' W 074°01'2 4.9
2018-Jun-15 10:30N 40°42' W 073°60'4 7.2
2018-Jun-15 10:00N 40°45' W 073°58'59 8.9
2018-Jun-15 03:23N 41°06' W 072°44'410.7
2018-Jun-15 03:00N 41°07' W 072°39'611.3
2018-Jun-15 02:30N 41°08' W 072°32'611.8
2018-Jun-15 02:00N 41°10' W 072°24'612.2
2018-Jun-15 01:30N 41°12' W 072°17'611.9
2018-Jun-15 00:59N 41°13' W 072°09'91 8.2
2018-Jun-14 13:55N 42°08' W 070°32'4 9.9
2018-Jun-14 13:30N 42°12' W 070°34'5 9.8
2018-Jun-14 13:00N 42°15' W 070°39'5 9.4
2018-Jun-14 12:30N 42°19' W 070°44'5 9.2
2018-Jun-14 12:00N 42°21' W 070°49'4 8.7
2018-Jun-14 11:30N 42°22' W 070°54'4 8.5
2018-Jun-14 11:00N 42°20' W 070°59'4 7.1
2018-Jun-14 10:30N 42°22' W 071°03'2 3.5
2018-Jun-14 10:00N 42°23' W 071°01'1 1.2
2018-Jun-14 09:30N 42°24' W 071°01'0 0.0
2018-Jun-14 09:00N 42°24' W 071°01'0 0.0
2018-Jun-14 08:30N 42°24' W 071°01'0 0.0
2018-Jun-14 08:01N 42°24' W 071°01'0 0.0
2018-Jun-14 07:28N 42°24' W 071°01'0 0.0
2018-Jun-14 06:58N 42°24' W 071°01'0 0.0
2018-Jun-14 06:28N 42°24' W 071°01'0 0.0
2018-Jun-14 05:58N 42°24' W 071°01'0 0.0
2018-Jun-14 05:28N 42°24' W 071°01'0 0.0
2018-Jun-14 04:58N 42°24' W 071°01'0 0.0
2018-Jun-14 04:28N 42°24' W 071°01'0 0.0
2018-Jun-14 03:58N 42°24' W 071°01'0 0.0
2018-Jun-14 03:28N 42°24' W 071°01'0 0.0
2018-Jun-14 02:58N 42°24' W 071°01'0 0.0
2018-Jun-14 02:28N 42°24' W 071°01'0 0.0
2018-Jun-14 01:58N 42°24' W 071°01'0 0.0
2018-Jun-14 01:28N 42°24' W 071°01'0 0.0
2018-Jun-14 00:58N 42°24' W 071°01'0 0.0
2018-Jun-14 00:28N 42°24' W 071°01'0 0.0
2018-Jun-13 23:58N 42°24' W 071°01'0 0.0
2018-Jun-13 23:28N 42°24' W 071°01'0 0.0
2018-Jun-13 22:58N 42°24' W 071°01'0 0.0
2018-Jun-13 22:28N 42°24' W 071°01'0 0.0
2018-Jun-13 21:58N 42°24' W 071°01'0 0.0
2018-Jun-13 21:28N 42°24' W 071°01'0 0.0
2018-Jun-13 21:00N 42°24' W 071°01'1 2.0
2018-Jun-13 20:30N 42°23' W 071°02'1 2.7
2018-Jun-13 20:00N 42°22' W 071°03'1 1.4
2018-Jun-13 19:30N 42°21' W 071°02'0 0.0
2018-Jun-13 19:00N 42°21' W 071°02'0 0.0
2018-Jun-13 18:30N 42°21' W 071°02'0 0.0
2018-Jun-13 18:00N 42°21' W 071°02'0 0.0
2018-Jun-13 17:30N 42°21' W 071°02'0 0.0
2018-Jun-13 17:00N 42°21' W 071°02'0 0.0
2018-Jun-13 16:30N 42°21' W 071°02'0 0.1
2018-Jun-13 16:00N 42°22' W 071°02'0 0.7
2018-Jun-13 15:30N 42°22' W 071°02'2 3.2
2018-Jun-13 14:59N 42°23' W 071°03'0 0.0
2018-Jun-13 14:29N 42°23' W 071°03'0 0.0
2018-Jun-13 13:59N 42°23' W 071°03'0 0.0
2018-Jun-13 13:29N 42°23' W 071°03'0 0.0
2018-Jun-13 12:59N 42°23' W 071°03'0 0.0
2018-Jun-13 12:29N 42°23' W 071°03'0 0.0
2018-Jun-13 11:59N 42°23' W 071°03'0 0.0
2018-Jun-13 11:29N 42°23' W 071°03'0 0.0
2018-Jun-13 10:59N 42°23' W 071°03'0 0.0
2018-Jun-13 10:29N 42°23' W 071°03'0 0.0
2018-Jun-13 09:59N 42°23' W 071°03'0 0.0
2018-Jun-13 09:29N 42°23' W 071°03'0 0.0
2018-Jun-13 08:59N 42°23' W 071°03'0 0.0
2018-Jun-13 08:28N 42°23' W 071°03'0 0.0
2018-Jun-13 07:59N 42°23' W 071°03'0 0.0
2018-Jun-13 07:29N 42°23' W 071°03'0 0.0
2018-Jun-13 06:59N 42°23' W 071°03'0 0.0
2018-Jun-13 06:29N 42°23' W 071°03'0 0.0
2018-Jun-13 05:58N 42°23' W 071°03'0 0.0
2018-Jun-13 05:28N 42°23' W 071°03'0 0.0
2018-Jun-13 04:58N 42°23' W 071°03'0 0.0
2018-Jun-13 04:29N 42°23' W 071°03'0 0.0
2018-Jun-13 03:55N 42°23' W 071°03'0 0.0
2018-Jun-13 03:28N 42°23' W 071°03'0 0.0
2018-Jun-13 03:00N 42°23' W 071°03'0 0.4
2018-Jun-13 02:30N 42°23' W 071°03'2 4.1
2018-Jun-13 02:00N 42°21' W 071°02'2 4.5
2018-Jun-13 01:30N 42°20' W 070°59'3 5.3
2018-Jun-13 01:00N 42°21' W 070°56'3 5.6
2018-Jun-13 00:30N 42°23' W 070°53'3 6.6
2018-Jun-13 00:00N 42°22' W 070°49'5 9.9
2018-Jun-12 23:30N 42°18' W 070°44'5 9.6
2018-Jun-12 23:00N 42°15' W 070°40'5 9.5
2018-Jun-12 22:30N 42°11' W 070°36'5 9.2
2018-Jun-12 21:57N 42°06' W 070°33'44 4.1
2018-Jun-12 11:20N 41°38' W 071°18'2 6.9
2018-Jun-12 11:00N 41°40' W 071°19'3 6.6
2018-Jun-12 10:29N 41°43' W 071°21'3 6.1
2018-Jun-12 10:00N 41°46' W 071°23'1 2.3
2018-Jun-12 09:30N 41°47' W 071°22'0 0.0
2018-Jun-12 09:00N 41°47' W 071°22'0 0.0
2018-Jun-12 08:26N 41°47' W 071°22'0 0.0
2018-Jun-12 07:56N 41°47' W 071°22'0 0.0
2018-Jun-12 07:26N 41°47' W 071°22'0 0.0
2018-Jun-12 06:56N 41°47' W 071°22'0 0.0
2018-Jun-12 06:26N 41°47' W 071°22'0 0.0
2018-Jun-12 05:56N 41°47' W 071°22'0 0.0
2018-Jun-12 05:26N 41°47' W 071°22'0 0.0
2018-Jun-12 04:56N 41°47' W 071°22'0 0.0
2018-Jun-12 04:26N 41°47' W 071°22'0 0.0
2018-Jun-12 03:44N 41°47' W 071°22'0 0.0
2018-Jun-12 03:26N 41°47' W 071°22'0 0.0
2018-Jun-12 02:56N 41°47' W 071°22'0 0.0
2018-Jun-12 02:26N 41°47' W 071°22'0 0.0
2018-Jun-12 01:56N 41°47' W 071°22'0 0.0
2018-Jun-12 01:26N 41°47' W 071°22'0 0.0
2018-Jun-12 00:56N 41°47' W 071°22'0 0.0
2018-Jun-12 00:26N 41°47' W 071°22'0 0.0
2018-Jun-11 23:56N 41°47' W 071°22'  

Dump ship's entire track history